»·PEaware :: SKW5800 KSLC-KSFO

SKW5800 :: KSLC-KSFO

FLIGHT INFORMATION

Flight Status: Arrived
Operator:
SkyWest Airlines
More flights by this operator :: More flights under this callsign
Pilot: Anonymous 16342 (16342)
Aircraft: CANADAIR CL-600 CRJ-700
(CRJ7)
More flights by this aircraft type
Origin: KSLC Salt Lake City Intl
United States
Destination: KSFO San Francisco Intl
United States
More flights between these airports :: More routes between these airports
Route: DEZRT1 BAM LLC LEGGS BDEGA3
File this flight plan on PilotEdge
Remarks:
Altitude:
(Current/Filed)
36,000ft
Speed:
(Current/Filed)
451kts
Departed: 05-Sep-19 12:47 PM
Arrived: 05-Sep-19 02:33 PM
Distance/Time
Traveled:
520nm/1:46
Distance/Time
To Go:
Arrived

Flight Plot

Page will automatically refresh every two minutes.

Flight plan parsing failed; only flown route is shown


Map Options




Map Legend


Flown Route
Filed Route
Departure Airport
Arrival Airport
Navaid (VOR, NDB)
Fix

Horizontal Profiles

Position Reports

Time Latitude Longitude Heading Altitude Ground
Speed
05-Sep-19 12:01 40.785691 -111.980085 355 4234ft 0kts
05-Sep-19 12:02 40.785691 -111.980085 355 4234ft 0kts
05-Sep-19 12:03 40.785691 -111.980085 355 4234ft 0kts
05-Sep-19 12:04 40.785691 -111.980085 355 4234ft 0kts
05-Sep-19 12:05 40.785691 -111.980085 355 4234ft 0kts
05-Sep-19 12:06 40.785691 -111.980085 355 4234ft 0kts
05-Sep-19 12:07 40.785691 -111.980085 355 4234ft 0kts
05-Sep-19 12:08 40.785691 -111.980085 355 4234ft 0kts
05-Sep-19 12:09 40.785691 -111.980085 355 4234ft 0kts
05-Sep-19 12:10 40.785691 -111.980085 355 4234ft 0kts
05-Sep-19 12:11 40.785691 -111.980085 355 4234ft 0kts
05-Sep-19 12:12 40.785691 -111.980085 355 4234ft 0kts
05-Sep-19 12:13 40.785691 -111.980085 355 4234ft 0kts
05-Sep-19 12:14 40.785691 -111.980085 355 4234ft 0kts
05-Sep-19 12:15 40.785691 -111.980085 355 4234ft 0kts
05-Sep-19 12:16 40.785691 -111.980085 355 4234ft 0kts
05-Sep-19 12:17 40.785691 -111.980085 355 4234ft 0kts
05-Sep-19 12:18 40.785691 -111.980085 355 4234ft 0kts
05-Sep-19 12:19 40.785691 -111.980085 355 4234ft 0kts
05-Sep-19 12:20 40.785691 -111.980085 355 4234ft 0kts
05-Sep-19 12:21 40.785691 -111.980085 355 4234ft 0kts
05-Sep-19 12:22 40.785691 -111.980085 355 4234ft 0kts
05-Sep-19 12:23 40.785691 -111.980085 355 4234ft 0kts
05-Sep-19 12:24 40.785691 -111.980085 355 4234ft 0kts
05-Sep-19 12:25 40.785691 -111.980085 355 4234ft 0kts
05-Sep-19 12:26 40.785691 -111.980085 355 4234ft 0kts
05-Sep-19 12:27 40.785691 -111.980085 355 4234ft 0kts
05-Sep-19 12:28 40.785691 -111.980085 355 4234ft 0kts
05-Sep-19 12:29 40.785691 -111.980085 355 4234ft 0kts
05-Sep-19 12:30 40.785691 -111.980085 355 4234ft 0kts
05-Sep-19 12:31 40.785691 -111.980085 355 4234ft 0kts
05-Sep-19 12:32 40.785691 -111.980085 355 4234ft 0kts
05-Sep-19 12:33 40.785691 -111.980085 355 4234ft 0kts
05-Sep-19 12:34 40.785691 -111.980085 355 4234ft 0kts
05-Sep-19 12:35 40.785691 -111.980085 355 4234ft 0kts
05-Sep-19 12:36 40.785306 -111.980152 26 4234ft 2kts
05-Sep-19 12:37 40.785091 -111.980664 84 4234ft 0kts
05-Sep-19 12:38 40.785091 -111.980664 84 4234ft 0kts
05-Sep-19 12:39 40.785164 -111.979573 84 4234ft 1kts
05-Sep-19 12:40 40.785306 -111.977431 84 4234ft 8kts
05-Sep-19 12:41 40.783430 -111.976201 173 4234ft 11kts
05-Sep-19 12:42 40.779484 -111.975759 174 4234ft 16kts
05-Sep-19 12:43 40.776772 -111.975445 174 4234ft 8kts
05-Sep-19 12:44 40.774477 -111.974502 93 4234ft 0kts
05-Sep-19 12:45 40.774507 -111.974092 72 4234ft 6kts
05-Sep-19 12:46 40.790258 -111.974892 353 4242ft 158kts
05-Sep-19 12:47 40.833253 -111.998841 306 6116ft 213kts
05-Sep-19 12:48 40.869764 -112.065509 290 9321ft 251kts
05-Sep-19 12:49 40.868084 -112.160873 267 13036ft 272kts
05-Sep-19 12:50 40.869791 -112.259128 269 16362ft 286kts
05-Sep-19 12:51 40.870844 -112.366734 268 19308ft 299kts
05-Sep-19 12:52 40.871792 -112.479238 268 21800ft 312kts
05-Sep-19 12:53 40.872616 -112.597726 267 23553ft 342kts
05-Sep-19 12:54 40.872358 -112.724600 258 25834ft 343kts
05-Sep-19 12:55 40.840027 -112.842785 258 27660ft 351kts
05-Sep-19 12:56 40.842745 -112.974514 267 29071ft 371kts
05-Sep-19 12:57 40.842410 -113.113854 265 30734ft 374kts
05-Sep-19 12:58 40.842576 -113.251359 266 31821ft 376kts
05-Sep-19 12:59 40.842627 -113.388636 266 32952ft 372kts
05-Sep-19 13:00 40.842537 -113.525396 266 33821ft 372kts
05-Sep-19 13:01 40.842130 -113.661751 266 34703ft 369kts
05-Sep-19 13:02 40.841679 -113.797351 266 35440ft 368kts
05-Sep-19 13:03 40.841161 -113.932138 265 36073ft 367kts
05-Sep-19 13:04 40.840227 -114.070510 265 36059ft 386kts
05-Sep-19 13:05 40.839015 -114.215919 265 36062ft 406kts
05-Sep-19 13:06 40.837545 -114.368655 265 36195ft 425kts
05-Sep-19 13:07 40.835875 -114.527924 265 36255ft 434kts
05-Sep-19 13:08 40.834222 -114.685133 265 36262ft 427kts
05-Sep-19 13:09 40.824969 -114.839278 255 36270ft 416kts
05-Sep-19 13:10 40.805867 -114.989653 258 36277ft 412kts
05-Sep-19 13:11 40.789374 -115.137699 256 36282ft 408kts
05-Sep-19 13:12 40.771776 -115.289249 256 36287ft 425kts
05-Sep-19 13:13 40.753266 -115.446391 257 36287ft 441kts
05-Sep-19 13:14 40.733976 -115.608280 257 36285ft 451kts
05-Sep-19 13:15 40.714493 -115.770803 256 36282ft 439kts
05-Sep-19 13:16 40.695539 -115.926703 256 36281ft 425kts
05-Sep-19 13:17 40.676784 -116.078238 255 36283ft 413kts
05-Sep-19 13:18 40.658529 -116.225940 255 36281ft 402kts
05-Sep-19 13:20 40.640437 -116.369008 255 36277ft 390kts
05-Sep-19 13:21 40.622740 -116.507496 254 36271ft 379kts
05-Sep-19 13:22 40.605737 -116.642212 254 36265ft 366kts
05-Sep-19 13:23 40.588736 -116.772174 254 36262ft 354kts
05-Sep-19 13:24 40.572287 -116.897626 253 36261ft 340kts
05-Sep-19 13:25 40.546455 -117.013000 243 36261ft 318kts
05-Sep-19 13:26 40.517582 -117.119775 244 36258ft 303kts
05-Sep-19 13:27 40.491245 -117.221695 244 36253ft 285kts
05-Sep-19 13:28 40.466187 -117.316797 243 36248ft 267kts
05-Sep-19 13:29 40.441693 -117.409756 243 36249ft 277kts
05-Sep-19 13:30 40.415492 -117.508884 244 36243ft 298kts
05-Sep-19 13:31 40.386950 -117.615750 244 36238ft 323kts
05-Sep-19 13:32 40.355852 -117.731665 244 36233ft 351kts
05-Sep-19 13:33 40.322105 -117.857739 244 36218ft 381kts
05-Sep-19 13:34 40.285323 -117.993535 245 36211ft 412kts
05-Sep-19 13:35 40.246738 -118.136103 245 36204ft 420kts
05-Sep-19 13:36 40.211556 -118.265024 245 36199ft 419kts
05-Sep-19 13:37 40.172676 -118.406043 244 36195ft 405kts
05-Sep-19 13:38 40.134959 -118.542037 243 36192ft 392kts
05-Sep-19 13:39 40.097308 -118.673164 242 36191ft 378kts
05-Sep-19 13:40 40.059289 -118.798999 241 36192ft 364kts
05-Sep-19 13:40 40.028476 -118.900231 242 36195ft 360kts
05-Sep-19 13:42 39.984775 -119.044236 241 36198ft 372kts
05-Sep-19 13:43 39.945768 -119.171959 241 36200ft 385kts
05-Sep-19 13:43 39.912476 -119.280757 242 36204ft 396kts
05-Sep-19 13:44 39.870510 -119.417031 241 36207ft 409kts
05-Sep-19 13:46 39.820284 -119.579201 241 36213ft 421kts
05-Sep-19 13:46 39.783296 -119.698092 241 36215ft 427kts
05-Sep-19 13:47 39.738673 -119.841000 241 36240ft 429kts
05-Sep-19 13:48 39.693960 -119.984077 241 36251ft 421kts
05-Sep-19 13:49 39.649959 -120.123428 241 36267ft 413kts
05-Sep-19 13:50 39.606705 -120.259527 240 36320ft 407kts
05-Sep-19 13:51 39.563579 -120.394657 240 36323ft 402kts
05-Sep-19 13:52 39.520829 -120.528002 240 36316ft 400kts
05-Sep-19 13:53 39.478031 -120.660819 240 36312ft 398kts
05-Sep-19 13:54 39.433524 -120.790914 240 36295ft 396kts
05-Sep-19 13:55 39.392497 -120.922624 240 36273ft 396kts
05-Sep-19 13:56 39.350241 -121.054226 240 36223ft 395kts
05-Sep-19 13:57 39.291533 -121.169772 222 36083ft 383kts
05-Sep-19 13:58 39.220860 -121.272903 225 36057ft 385kts
05-Sep-19 13:59 39.152569 -121.378827 224 36014ft 385kts
05-Sep-19 14:00 39.083217 -121.484156 224 36005ft 384kts
05-Sep-19 14:01 39.015150 -121.587524 224 36011ft 384kts
05-Sep-19 14:02 38.945477 -121.692986 224 36011ft 383kts
05-Sep-19 14:03 38.876306 -121.797417 224 36011ft 383kts
05-Sep-19 14:04 38.808093 -121.900045 224 36011ft 382kts
05-Sep-19 14:05 38.739158 -122.003965 224 33298ft 367kts
05-Sep-19 14:06 38.675740 -122.098821 224 30314ft 341kts
05-Sep-19 14:07 38.615438 -122.188849 224 27119ft 330kts
05-Sep-19 14:08 38.552085 -122.282538 226 24388ft 360kts
05-Sep-19 14:09 38.483369 -122.384261 226 24067ft 411kts
05-Sep-19 14:10 38.414123 -122.487268 225 24045ft 353kts
05-Sep-19 14:11 38.352303 -122.578576 225 21990ft 343kts
05-Sep-19 14:12 38.290348 -122.670319 225 19786ft 343kts
05-Sep-19 14:13 38.224394 -122.748933 194 19079ft 312kts
05-Sep-19 14:14 38.135584 -122.743891 169 18564ft 330kts
05-Sep-19 14:15 38.046735 -122.715245 169 17512ft 327kts
05-Sep-19 14:16 37.958530 -122.690384 169 16049ft 323kts
05-Sep-19 14:17 37.878417 -122.654039 145 13370ft 316kts
05-Sep-19 14:18 37.813523 -122.581656 143 11009ft 296kts
05-Sep-19 14:19 37.760895 -122.526116 143 10990ft 268kts
05-Sep-19 14:20 37.703354 -122.465523 142 11001ft 272kts
05-Sep-19 14:21 37.643173 -122.401901 143 10163ft 290kts
05-Sep-19 14:22 37.583784 -122.340354 143 8960ft 261kts
05-Sep-19 14:23 37.531098 -122.286300 143 7747ft 231kts
05-Sep-19 14:24 37.485082 -122.239485 143 6579ft 216kts
05-Sep-19 14:25 37.444335 -122.187534 108 5241ft 215kts
05-Sep-19 14:26 37.480462 -122.143388 348 4166ft 198kts
05-Sep-19 14:27 37.522297 -122.176373 323 3984ft 174kts
05-Sep-19 14:28 37.557474 -122.221887 294 3295ft 186kts
05-Sep-19 14:29 37.578013 -122.278134 297 2194ft 152kts
05-Sep-19 14:30 37.596111 -122.318102 295 1151ft 127kts
05-Sep-19 14:31 37.610802 -122.355947 294 141ft 114kts
05-Sep-19 14:32 37.619618 -122.377318 294 20ft 26kts
05-Sep-19 14:33 37.619590 -122.379406 229 20ft 0kts
05-Sep-19 14:34 37.619209 -122.380060 234 20ft 7kts
05-Sep-19 14:35 37.620022 -122.382819 299 20ft 5kts
05-Sep-19 14:36 37.621317 -122.385974 299 20ft 6kts
05-Sep-19 14:37 37.622674 -122.389491 238 20ft 13kts
05-Sep-19 14:38 37.620200 -122.391469 140 20ft 14kts
05-Sep-19 14:39 37.620368 -122.390007 28 20ft 3kts
05-Sep-19 14:40 37.620457 -122.389946 28 20ft 0kts
05-Sep-19 14:41 37.620457 -122.389946 28 20ft 0kts
05-Sep-19 14:42 37.620457 -122.389946 28 20ft 0kts
05-Sep-19 14:43 37.620457 -122.389946 28 20ft 0kts
05-Sep-19 14:44 37.620457 -122.389946 28 20ft 0kts
05-Sep-19 14:45 37.620457 -122.389946 28 20ft 0kts
05-Sep-19 14:46 37.620457 -122.389946 28 20ft 0kts

Navigation Log

Ident Type
Flight plan parsing failed, navigation log unavailable